Time;durP1;ratioP1;P1;durP2;ratioP2;P2;SDS_P1;SDS_P2;PMS_P1;PMS_P2;Temp;Humidity;BMP_temperature;BMP_pressure;BME280_temperature;BME280_humidity;BME280_pressure;Samples;Min_cycle;Max_cycle;Signal;HPM_P1;HPM_P2
2022/06/06 00:01:49;;;;;;;31.25;28.80;;;;;;;;;;4973432;28;20217;-70
2022/06/06 00:04:20;;;;;;;31.30;28.80;;;;;;;;;;4994290;28;20221;-72
2022/06/06 00:06:48;;;;;;;30.27;27.77;;;;;;;;;;4972794;28;20229;-72
2022/06/06 00:09:15;;;;;;;29.45;27.15;;;;;;;;;;4979401;28;20240;-71
2022/06/06 00:11:43;;;;;;;40.22;36.78;;;;;;;;;;5001832;28;20224;-72
2022/06/06 00:14:14;;;;;;;33.45;30.65;;;;;;;;;;4986300;28;20247;-72
2022/06/06 00:16:44;;;;;;;28.77;26.38;;;;;;;;;;4991966;28;20257;-77
2022/06/06 00:19:13;;;;;;;25.80;23.88;;;;;;;;;;4977584;28;20227;-72
2022/06/06 00:21:39;;;;;;;24.08;22.17;;;;;;;;;;5001303;28;20272;-74
2022/06/06 00:24:05;;;;;;;21.27;19.75;;;;;;;;;;4989800;28;20274;-73
2022/06/06 00:26:33;;;;;;;19.73;18.23;;;;;;;;;;4982636;28;20228;-72
2022/06/06 00:28:59;;;;;;;19.45;17.77;;;;;;;;;;4988264;28;20279;-71
2022/06/06 00:36:54;;;;;;;15.60;14.32;;;;;;;;;;4993209;28;20308;-73
2022/06/06 00:39:22;;;;;;;15.45;14.23;;;;;;;;;;4990562;28;20231;-72
2022/06/06 00:41:53;;;;;;;16.13;14.73;;;;;;;;;;4967917;28;20714;-72
2022/06/06 00:44:31;;;;;;;15.93;14.60;;;;;;;;;;4984575;28;20220;-73
2022/06/06 00:47:00;;;;;;;15.63;14.43;;;;;;;;;;4979953;28;20227;-72
2022/06/06 00:49:42;;;;;;;15.40;14.20;;;;;;;;;;5001665;28;20241;-72
2022/06/06 00:52:21;;;;;;;15.70;14.40;;;;;;;;;;5002764;28;20240;-72
2022/06/06 00:54:47;;;;;;;16.85;13.82;;;;;;;;;;5005952;28;20239;-72
2022/06/06 00:57:14;;;;;;;11.93;11.02;;;;;;;;;;4994094;28;20217;-72
2022/06/06 00:59:40;;;;;;;9.93;9.23;;;;;;;;;;4971195;28;20225;-73
2022/06/06 01:02:10;;;;;;;10.63;9.82;;;;;;;;;;4985080;28;20316;-73
2022/06/06 01:04:36;;;;;;;10.05;9.25;;;;;;;;;;4970746;28;20221;-72
2022/06/06 01:07:09;;;;;;;9.07;8.27;;;;;;;;;;4995814;28;20252;-73
2022/06/06 01:09:34;;;;;;;8.75;7.05;;;;;;;;;;4988847;28;20217;-72
2022/06/06 01:12:06;;;;;;;7.68;7.15;;;;;;;;;;4987674;28;20271;-72
2022/06/06 01:14:37;;;;;;;6.85;6.20;;;;;;;;;;4975631;28;20220;-72
2022/06/06 01:17:08;;;;;;;5.57;5.10;;;;;;;;;;5000985;28;20225;-71
2022/06/06 01:19:58;;;;;;;6.53;6.03;;;;;;;;;;4977309;28;20221;-72
2022/06/06 01:22:43;;;;;;;6.00;5.60;;;;;;;;;;4999895;28;20221;-71
2022/06/06 01:25:11;;;;;;;6.43;5.90;;;;;;;;;;5007008;28;20620;-72
2022/06/06 01:27:46;;;;;;;6.50;6.07;;;;;;;;;;5005884;28;20237;-73
2022/06/06 01:30:14;;;;;;;6.53;5.90;;;;;;;;;;5000486;28;20319;-72
2022/06/06 01:32:47;;;;;;;6.90;6.30;;;;;;;;;;4969829;28;20231;-72
2022/06/06 01:35:23;;;;;;;6.80;6.20;;;;;;;;;;4986362;28;20228;-72
2022/06/06 01:37:48;;;;;;;6.43;6.03;;;;;;;;;;5010713;28;20243;-72
2022/06/06 01:40:15;;;;;;;6.45;5.95;;;;;;;;;;5003110;28;20698;-72
2022/06/06 01:43:01;;;;;;;7.43;6.82;;;;;;;;;;4979403;28;20231;-72
2022/06/06 01:45:27;;;;;;;7.45;6.85;;;;;;;;;;5000382;28;20225;-72
2022/06/06 01:48:02;;;;;;;7.15;6.65;;;;;;;;;;5004021;28;20236;-72
2022/06/06 01:50:28;;;;;;;7.45;6.95;;;;;;;;;;4977648;28;20221;-72
2022/06/06 01:52:59;;;;;;;8.57;7.88;;;;;;;;;;4977398;28;20225;-71
2022/06/06 01:55:28;;;;;;;8.77;8.07;;;;;;;;;;5006316;28;20256;-73
2022/06/06 01:57:59;;;;;;;8.38;7.68;;;;;;;;;;4973079;28;20220;-72
2022/06/06 02:00:28;;;;;;;8.85;8.18;;;;;;;;;;4992140;28;20233;-72
2022/06/06 02:02:55;;;;;;;9.35;8.60;;;;;;;;;;5005397;28;20757;-72
2022/06/06 02:05:23;;;;;;;9.10;8.40;;;;;;;;;;5005035;28;20247;-72
2022/06/06 02:07:49;;;;;;;9.25;8.50;;;;;;;;;;4961106;28;20221;-72
2022/06/06 02:10:15;;;;;;;9.90;9.00;;;;;;;;;;4988739;28;20286;-72
2022/06/06 02:12:43;;;;;;;9.25;8.52;;;;;;;;;;4989061;28;20225;-73
2022/06/06 02:15:15;;;;;;;9.82;8.93;;;;;;;;;;5007541;28;20580;-73
2022/06/06 02:17:45;;;;;;;9.73;8.93;;;;;;;;;;5001465;28;20698;-73
2022/06/06 02:20:17;;;;;;;9.30;8.70;;;;;;;;;;5001990;28;20224;-73
2022/06/06 02:22:45;;;;;;;9.70;8.82;;;;;;;;;;4996762;28;20296;-72
2022/06/06 02:25:11;;;;;;;9.60;8.77;;;;;;;;;;4995195;28;20296;-73
2022/06/06 02:27:40;;;;;;;9.88;9.07;;;;;;;;;;4967759;28;20233;-74
2022/06/06 02:30:13;;;;;;;10.18;9.13;;;;;;;;;;4985134;28;20635;-73
2022/06/06 02:32:39;;;;;;;9.98;9.07;;;;;;;;;;4988367;28;20239;-73
2022/06/06 02:35:08;;;;;;;9.40;8.60;;;;;;;;;;5001427;28;20304;-73
2022/06/06 02:37:36;;;;;;;9.95;9.05;;;;;;;;;;4977968;28;20221;-73
2022/06/06 02:40:07;;;;;;;9.55;8.80;;;;;;;;;;4971174;28;20283;-74
2022/06/06 02:42:35;;;;;;;9.80;9.10;;;;;;;;;;4991313;28;20221;-73
2022/06/06 02:45:09;;;;;;;10.75;9.85;;;;;;;;;;4968906;28;20225;-73
2022/06/06 02:47:40;;;;;;;9.85;9.05;;;;;;;;;;4991687;28;20254;-74
2022/06/06 02:50:06;;;;;;;11.27;10.38;;;;;;;;;;4985333;28;20229;-73
2022/06/06 02:52:34;;;;;;;12.50;11.50;;;;;;;;;;4975319;28;20276;-74
2022/06/06 02:55:03;;;;;;;12.95;11.85;;;;;;;;;;4980030;28;20260;-73
2022/06/06 02:57:29;;;;;;;12.13;11.02;;;;;;;;;;5005170;28;20631;-74
2022/06/06 02:59:55;;;;;;;12.48;11.23;;;;;;;;;;5003981;28;20225;-73
2022/06/06 03:02:20;;;;;;;12.52;11.43;;;;;;;;;;4967873;28;20276;-74
2022/06/06 03:04:48;;;;;;;12.52;11.32;;;;;;;;;;4989374;28;20216;-74
2022/06/06 03:07:22;;;;;;;13.48;12.07;;;;;;;;;;4993042;28;20295;-74
2022/06/06 03:10:16;;;;;;;13.40;12.30;;;;;;;;;;5004001;28;20235;-73
2022/06/06 03:13:12;;;;;;;13.07;11.88;;;;;;;;;;5002588;28;20220;-73
2022/06/06 03:22:29;;;;;;;14.25;13.02;;;;;;;;;;4998915;28;20717;-73
2022/06/06 03:25:31;;;;;;;15.20;13.75;;;;;;;;;;4999675;28;20221;-73
2022/06/06 03:28:14;;;;;;;15.70;14.20;;;;;;;;;;4964744;28;20224;-74
2022/06/06 03:31:02;;;;;;;15.35;14.02;;;;;;;;;;4973785;28;20214;-76
2022/06/06 03:33:52;;;;;;;18.45;16.85;;;;;;;;;;5001737;28;20769;-74
2022/06/06 03:36:30;;;;;;;17.85;15.95;;;;;;;;;;4989806;28;20218;-74
2022/06/06 03:39:16;;;;;;;15.65;13.90;;;;;;;;;;4984105;28;20231;-74
2022/06/06 03:41:51;;;;;;;14.30;13.10;;;;;;;;;;4996600;28;20221;-74
2022/06/06 03:44:27;;;;;;;15.15;13.80;;;;;;;;;;4987949;28;20641;-74
2022/06/06 03:47:13;;;;;;;14.45;13.25;;;;;;;;;;5000803;28;20611;-74
2022/06/06 03:50:09;;;;;;;14.57;13.23;;;;;;;;;;5004557;28;20605;-74
2022/06/06 03:52:48;;;;;;;14.35;13.05;;;;;;;;;;4979604;28;20815;-73
2022/06/06 03:55:41;;;;;;;14.57;13.07;;;;;;;;;;4990871;28;20430;-73
2022/06/06 03:58:10;;;;;;;14.77;13.48;;;;;;;;;;5001545;28;20220;-74
2022/06/06 04:00:38;;;;;;;14.73;13.18;;;;;;;;;;4984952;28;20356;-73
2022/06/06 04:03:09;;;;;;;14.43;13.23;;;;;;;;;;4993604;28;20382;-73
2022/06/06 04:05:36;;;;;;;14.48;13.05;;;;;;;;;;5010642;23;20228;-86
2022/06/06 04:08:03;;;;;;;14.25;12.85;;;;;;;;;;4971710;28;20229;-85
2022/06/06 04:10:35;;;;;;;14.77;13.38;;;;;;;;;;4956757;28;20231;-86
2022/06/06 04:13:16;;;;;;;14.23;12.95;;;;;;;;;;4976010;28;20243;-85
2022/06/06 04:15:53;;;;;;;15.32;13.90;;;;;;;;;;4995471;28;20225;-86
2022/06/06 04:18:26;;;;;;;13.18;11.90;;;;;;;;;;4938532;28;20271;-87
2022/06/06 04:21:02;;;;;;;14.43;13.15;;;;;;;;;;4990277;28;20224;-86
2022/06/06 04:23:44;;;;;;;14.85;13.35;;;;;;;;;;4991259;28;20283;-87
2022/06/06 04:26:25;;;;;;;14.90;13.48;;;;;;;;;;4980402;28;20280;-85
2022/06/06 04:29:23;;;;;;;14.65;13.35;;;;;;;;;;4995859;28;20249;-84
2022/06/06 04:31:56;;;;;;;15.00;13.50;;;;;;;;;;4965199;28;20229;-88
2022/06/06 04:34:38;;;;;;;15.00;13.65;;;;;;;;;;4984803;28;20235;-86
2022/06/06 04:37:11;;;;;;;15.80;14.20;;;;;;;;;;4951509;28;20226;-86
2022/06/06 04:39:54;;;;;;;14.95;13.45;;;;;;;;;;4971819;28;20312;-86
2022/06/06 04:42:34;;;;;;;15.88;14.27;;;;;;;;;;4993092;28;20221;-85
2022/06/06 04:45:02;;;;;;;15.60;14.10;;;;;;;;;;4944155;28;20605;-85
2022/06/06 04:47:34;;;;;;;17.27;15.63;;;;;;;;;;4977130;28;20234;-84
2022/06/06 04:50:06;;;;;;;17.30;15.60;;;;;;;;;;4976376;28;20638;-87
2022/06/06 04:52:35;;;;;;;20.95;18.67;;;;;;;;;;4967995;28;20233;-87
2022/06/06 04:55:05;;;;;;;21.70;18.48;;;;;;;;;;4974070;23;20234;-73
2022/06/06 04:57:31;;;;;;;20.13;18.02;;;;;;;;;;4918076;28;20218;-73
2022/06/06 04:59:58;;;;;;;22.40;20.00;;;;;;;;;;4935358;28;20219;-73
2022/06/06 05:02:24;;;;;;;22.33;19.92;;;;;;;;;;4914857;28;20234;-73
2022/06/06 05:04:50;;;;;;;21.55;19.42;;;;;;;;;;4928052;28;20215;-74
2022/06/06 05:07:26;;;;;;;23.10;20.70;;;;;;;;;;4932679;28;20772;-73
2022/06/06 05:10:04;;;;;;;22.23;19.98;;;;;;;;;;4928510;29;20222;-73
2022/06/06 05:12:42;;;;;;;22.35;20.08;;;;;;;;;;4934197;29;20638;-73
2022/06/06 05:15:21;;;;;;;22.25;19.95;;;;;;;;;;4933621;28;20264;-74
2022/06/06 05:18:06;;;;;;;22.95;20.55;;;;;;;;;;4926015;29;20229;-74
2022/06/06 05:20:31;;;;;;;23.02;20.60;;;;;;;;;;4936724;28;20219;-74
2022/06/06 05:23:03;;;;;;;28.27;22.55;;;;;;;;;;4938244;28;20223;-74
2022/06/06 05:25:55;;;;;;;26.00;21.02;;;;;;;;;;4930561;29;20227;-74
2022/06/06 05:28:20;;;;;;;24.13;20.95;;;;;;;;;;4939310;28;20705;-73
2022/06/06 05:31:14;;;;;;;24.05;21.45;;;;;;;;;;4915061;29;20227;-73
2022/06/06 05:34:20;;;;;;;24.02;21.23;;;;;;;;;;4932538;29;20709;-73
2022/06/06 05:36:53;;;;;;;23.48;20.92;;;;;;;;;;4938058;28;20353;-74
2022/06/06 05:39:36;;;;;;;25.17;22.55;;;;;;;;;;4933097;28;20223;-73
2022/06/06 05:42:05;;;;;;;21.15;18.95;;;;;;;;;;4917883;28;20223;-73
2022/06/06 05:44:34;;;;;;;22.77;19.00;;;;;;;;;;4932465;28;20290;-73
2022/06/06 05:47:20;;;;;;;22.80;18.85;;;;;;;;;;4935195;28;20321;-72
2022/06/06 05:49:57;;;;;;;20.63;17.48;;;;;;;;;;4925951;29;20224;-73
2022/06/06 05:52:34;;;;;;;20.90;17.08;;;;;;;;;;4949872;28;20660;-72
2022/06/06 05:55:03;;;;;;;21.98;17.85;;;;;;;;;;4954310;28;20234;-73
2022/06/06 05:58:16;;;;;;;20.17;17.67;;;;;;;;;;4952486;28;20223;-73
2022/06/06 06:01:09;;;;;;;16.58;14.88;;;;;;;;;;4919002;29;20220;-73
2022/06/06 06:03:37;;;;;;;19.45;15.13;;;;;;;;;;4948373;28;20287;-73
2022/06/06 06:06:08;;;;;;;16.10;14.35;;;;;;;;;;4934774;28;20251;-73
2022/06/06 06:08:46;;;;;;;17.88;13.77;;;;;;;;;;4929054;29;20224;-73
2022/06/06 06:11:24;;;;;;;15.75;13.07;;;;;;;;;;4931631;28;20223;-72
2022/06/06 06:14:04;;;;;;;15.23;13.43;;;;;;;;;;4922674;29;20251;-74
2022/06/06 06:16:32;;;;;;;16.42;12.35;;;;;;;;;;4933499;29;20222;-73
2022/06/06 06:19:07;;;;;;;15.75;13.77;;;;;;;;;;4909285;29;20285;-73
2022/06/06 06:21:38;;;;;;;15.80;14.07;;;;;;;;;;4929347;29;20211;-72
2022/06/06 06:24:11;;;;;;;15.95;13.73;;;;;;;;;;4911597;28;20687;-72
2022/06/06 06:26:37;;;;;;;17.27;13.98;;;;;;;;;;4917524;29;20222;-72
2022/06/06 06:29:04;;;;;;;16.40;13.73;;;;;;;;;;4930721;28;20628;-73
2022/06/06 06:31:43;;;;;;;15.70;13.50;;;;;;;;;;4932609;29;20211;-72
2022/06/06 06:34:09;;;;;;;16.73;12.75;;;;;;;;;;4928048;28;20238;-72
2022/06/06 06:36:58;;;;;;;14.73;13.23;;;;;;;;;;4932067;28;20219;-73
2022/06/06 06:39:23;;;;;;;16.02;13.23;;;;;;;;;;4916881;28;20247;-74
2022/06/06 06:42:10;;;;;;;14.15;12.00;;;;;;;;;;4937458;28;20216;-71
2022/06/06 06:44:39;;;;;;;12.15;10.77;;;;;;;;;;4945604;28;20219;-73
2022/06/06 06:47:14;;;;;;;13.25;11.32;;;;;;;;;;4941219;28;20227;-73
2022/06/06 06:49:58;;;;;;;11.40;10.30;;;;;;;;;;4922208;29;20567;-73
2022/06/06 06:53:25;;;;;;;11.52;9.35;;;;;;;;;;4905476;28;20294;-73
2022/06/06 06:55:58;;;;;;;11.88;10.07;;;;;;;;;;4932718;29;20227;-73
2022/06/06 06:58:30;;;;;;;11.55;9.38;;;;;;;;;;4911087;29;20220;-73
2022/06/06 07:01:04;;;;;;;11.20;10.02;;;;;;;;;;4933739;29;20232;-72
2022/06/06 07:10:03;;;;;;;11.80;9.88;;;;;;;;;;4933037;28;20219;-74
2022/06/06 07:12:31;;;;;;;10.15;9.07;;;;;;;;;;4940401;28;20227;-73
2022/06/06 07:15:34;;;;;;;11.32;9.00;;;;;;;;;;4932162;29;20258;-73
2022/06/06 07:18:00;;;;;;;9.10;8.20;;;;;;;;;;4935796;28;20223;-72
2022/06/06 07:20:26;;;;;;;9.27;8.38;;;;;;;;;;4925314;28;20631;-72
2022/06/06 07:22:59;;;;;;;11.07;8.52;;;;;;;;;;4931939;29;20310;-72
2022/06/06 07:25:47;;;;;;;8.05;7.35;;;;;;;;;;4915156;28;20230;-73
2022/06/06 07:28:22;;;;;;;8.25;7.45;;;;;;;;;;4913425;28;20282;-74
2022/06/06 07:30:59;;;;;;;8.05;7.25;;;;;;;;;;4913034;29;20323;-74
2022/06/06 07:33:32;;;;;;;10.55;7.82;;;;;;;;;;4925314;28;20235;-73
2022/06/06 07:36:13;;;;;;;10.15;8.38;;;;;;;;;;4914946;29;20448;-76
2022/06/06 07:38:58;;;;;;;10.27;7.47;;;;;;;;;;4913197;29;20264;-73
2022/06/06 07:41:35;;;;;;;8.30;6.88;;;;;;;;;;4904431;28;20285;-68
2022/06/06 07:44:13;;;;;;;10.52;7.32;;;;;;;;;;4914683;29;20247;-74
2022/06/06 07:47:05;;;;;;;8.80;6.35;;;;;;;;;;4935093;28;20652;-76
2022/06/06 07:49:54;;;;;;;6.63;5.93;;;;;;;;;;4904314;29;20278;-74
2022/06/06 07:52:32;;;;;;;8.30;6.75;;;;;;;;;;4909810;28;20335;-74
2022/06/06 07:55:11;;;;;;;6.82;6.13;;;;;;;;;;4894887;29;20227;-73
2022/06/06 07:58:23;;;;;;;7.43;6.43;;;;;;;;;;4921117;29;20278;-71
2022/06/06 08:01:02;;;;;;;6.70;6.10;;;;;;;;;;4935783;28;20906;-77
2022/06/06 08:03:40;;;;;;;9.25;6.97;;;;;;;;;;4933620;28;20283;-72
2022/06/06 08:06:37;;;;;;;7.95;6.65;;;;;;;;;;4897511;28;20310;-74
2022/06/06 08:09:18;;;;;;;8.30;6.25;;;;;;;;;;4930358;28;20271;-74
2022/06/06 08:11:54;;;;;;;8.25;6.28;;;;;;;;;;4913026;29;20231;-74
2022/06/06 08:14:49;;;;;;;8.43;6.10;;;;;;;;;;4916847;28;20228;-72
2022/06/06 08:17:22;;;;;;;6.85;5.78;;;;;;;;;;4913619;28;20230;-73
2022/06/06 08:20:21;;;;;;;7.07;6.10;;;;;;;;;;4911746;29;20241;-74
2022/06/06 08:22:47;;;;;;;6.22;5.70;;;;;;;;;;4910934;29;20226;-73
2022/06/06 08:25:14;;;;;;;8.07;5.88;;;;;;;;;;4903448;28;20231;-74
2022/06/06 08:27:47;;;;;;;7.70;5.70;;;;;;;;;;4934544;28;20235;-74
2022/06/06 08:30:13;;;;;;;7.15;5.80;;;;;;;;;;4929087;28;20306;-72
2022/06/06 08:32:39;;;;;;;5.57;5.07;;;;;;;;;;4898012;29;20227;-74
2022/06/06 08:35:06;;;;;;;7.15;5.22;;;;;;;;;;4896497;28;20227;-76
2022/06/06 08:37:35;;;;;;;6.63;4.72;;;;;;;;;;4898083;29;20239;-77
2022/06/06 08:40:38;;;;;;;5.53;5.00;;;;;;;;;;4924180;29;20238;-74
2022/06/06 08:43:40;;;;;;;5.60;5.03;;;;;;;;;;4939283;28;20227;-74
2022/06/06 08:46:14;;;;;;;6.32;5.60;;;;;;;;;;4903374;28;20222;-77
2022/06/06 08:49:02;;;;;;;6.85;6.13;;;;;;;;;;4935816;28;20230;-74
2022/06/06 08:51:51;;;;;;;7.55;6.13;;;;;;;;;;4930585;28;20653;-74
2022/06/06 08:54:26;;;;;;;7.32;6.63;;;;;;;;;;4894271;28;20282;-74
2022/06/06 08:57:26;;;;;;;7.45;6.75;;;;;;;;;;4900422;29;20912;-74
2022/06/06 09:00:20;;;;;;;8.85;7.13;;;;;;;;;;4924889;29;20310;-73
2022/06/06 09:03:07;;;;;;;8.55;7.50;;;;;;;;;;4928999;28;20236;-75
2022/06/06 09:05:57;;;;;;;9.10;8.18;;;;;;;;;;4920934;29;20230;-76
2022/06/06 09:08:33;;;;;;;10.50;8.00;;;;;;;;;;4947692;28;20674;-75
2022/06/06 09:11:21;;;;;;;9.57;8.23;;;;;;;;;;4903963;29;20251;-76
2022/06/06 09:14:21;;;;;;;11.38;8.60;;;;;;;;;;4921498;29;20231;-78
2022/06/06 09:17:19;;;;;;;9.77;8.05;;;;;;;;;;4937462;28;20259;-78
2022/06/06 09:20:06;;;;;;;9.13;8.20;;;;;;;;;;4915443;29;20228;-78
2022/06/06 09:23:10;;;;;;;11.70;8.98;;;;;;;;;;4951891;28;20232;-82
2022/06/06 09:25:43;;;;;;;10.40;9.40;;;;;;;;;;4934410;28;20595;-77
2022/06/06 09:28:41;;;;;;;10.98;8.93;;;;;;;;;;4922839;28;20319;-75
2022/06/06 09:31:35;;;;;;;10.93;9.68;;;;;;;;;;4933078;28;20279;-78
2022/06/06 09:34:51;;;;;;;9.90;8.90;;;;;;;;;;4921162;28;20290;-78
2022/06/06 09:37:37;;;;;;;9.85;8.90;;;;;;;;;;4937638;28;20698;-79
2022/06/06 09:40:34;;;;;;;9.15;8.30;;;;;;;;;;4918953;28;20837;-74
2022/06/06 09:43:10;;;;;;;8.55;7.80;;;;;;;;;;4934151;28;20376;-77
2022/06/06 09:45:42;;;;;;;9.07;8.23;;;;;;;;;;4915093;29;20219;-72
2022/06/06 09:48:17;;;;;;;8.80;7.97;;;;;;;;;;4927242;28;20245;-74
2022/06/06 09:51:02;;;;;;;9.05;8.15;;;;;;;;;;4915440;29;20618;-77
2022/06/06 09:53:36;;;;;;;9.00;8.10;;;;;;;;;;4924796;28;20994;-76
2022/06/06 09:59:59;;;;;;;9.35;8.45;;;;;;;;;;4928373;28;20691;-74
2022/06/06 10:02:46;;;;;;;9.60;8.60;;;;;;;;;;4934216;28;20228;-75
2022/06/06 10:05:30;;;;;;;8.30;7.60;;;;;;;;;;4914711;29;20727;-75
2022/06/06 10:08:22;;;;;;;7.97;7.28;;;;;;;;;;4922232;29;20793;-76
2022/06/06 10:11:09;;;;;;;7.72;7.05;;;;;;;;;;4925883;28;20227;-74
2022/06/06 10:13:46;;;;;;;7.97;7.18;;;;;;;;;;4893778;29;20862;-73
2022/06/06 10:16:37;;;;;;;8.35;7.55;;;;;;;;;;4916711;28;20235;-75
2022/06/06 10:19:30;;;;;;;7.28;6.57;;;;;;;;;;4919433;28;20228;-74
2022/06/06 10:22:16;;;;;;;7.30;6.70;;;;;;;;;;4931928;29;20235;-74
2022/06/06 10:24:59;;;;;;;6.47;5.80;;;;;;;;;;4914833;29;20344;-75
2022/06/06 10:27:31;;;;;;;6.38;5.80;;;;;;;;;;4912726;28;20278;-76
2022/06/06 10:30:12;;;;;;;6.28;5.78;;;;;;;;;;4916862;29;20286;-76
2022/06/06 10:32:53;;;;;;;5.22;4.82;;;;;;;;;;4929192;29;20250;-75
2022/06/06 10:35:29;;;;;;;5.28;4.78;;;;;;;;;;4945268;28;20849;-74
2022/06/06 10:38:19;;;;;;;4.93;4.53;;;;;;;;;;4930128;29;20259;-75
2022/06/06 10:41:18;;;;;;;5.05;4.47;;;;;;;;;;4913922;29;20229;-74
2022/06/06 10:44:26;;;;;;;5.88;4.63;;;;;;;;;;4939487;28;20343;-78
2022/06/06 10:46:57;;;;;;;4.90;4.50;;;;;;;;;;4917482;29;20259;-74
2022/06/06 10:50:11;;;;;;;4.47;4.07;;;;;;;;;;4932558;28;20736;-75
2022/06/06 10:53:00;;;;;;;4.75;4.35;;;;;;;;;;4899127;29;20706;-74
2022/06/06 10:56:13;;;;;;;4.50;3.80;;;;;;;;;;4922143;29;20228;-74
2022/06/06 10:58:58;;;;;;;4.15;3.80;;;;;;;;;;4863849;29;20619;-74
2022/06/06 11:01:50;;;;;;;4.93;4.53;;;;;;;;;;4928039;29;20724;-74
2022/06/06 11:04:38;;;;;;;4.13;3.75;;;;;;;;;;4897530;28;20758;-75
2022/06/06 11:07:48;;;;;;;3.42;3.17;;;;;;;;;;4912609;28;20238;-75
2022/06/06 11:10:40;;;;;;;3.95;3.65;;;;;;;;;;4914437;28;20223;-75
2022/06/06 11:13:27;;;;;;;3.53;3.20;;;;;;;;;;4927545;28;20919;-74
2022/06/06 11:15:59;;;;;;;3.53;3.22;;;;;;;;;;4899585;29;20242;-76
2022/06/06 11:18:46;;;;;;;3.25;3.05;;;;;;;;;;4913149;28;20234;-76
2022/06/06 11:21:39;;;;;;;3.25;3.05;;;;;;;;;;4920397;28;20236;-75
2022/06/06 11:24:20;;;;;;;3.50;3.10;;;;;;;;;;4923475;28;20223;-77
2022/06/06 11:27:37;;;;;;;4.15;3.35;;;;;;;;;;4931087;28;20231;-74
2022/06/06 11:30:26;;;;;;;2.83;2.63;;;;;;;;;;4920281;28;20598;-78
2022/06/06 11:32:58;;;;;;;2.80;2.60;;;;;;;;;;4935594;29;20656;-75
2022/06/06 11:35:54;;;;;;;2.58;2.40;;;;;;;;;;4927868;28;20342;-76
2022/06/06 11:38:47;;;;;;;2.65;2.35;;;;;;;;;;4910068;28;20257;-74
2022/06/06 11:41:21;;;;;;;2.95;2.30;;;;;;;;;;4899328;28;20215;-76
2022/06/06 11:44:24;;;;;;;2.50;2.20;;;;;;;;;;4929335;29;20227;-74
2022/06/06 11:47:24;;;;;;;2.78;2.35;;;;;;;;;;4913229;29;20696;-77
2022/06/06 11:50:01;;;;;;;2.25;2.05;;;;;;;;;;4923886;29;20680;-77
2022/06/06 11:52:39;;;;;;;2.60;2.40;;;;;;;;;;4919023;28;20238;-78
2022/06/06 11:55:17;;;;;;;2.10;2.00;;;;;;;;;;4910203;29;21158;-76
2022/06/06 11:57:59;;;;;;;4.55;2.15;;;;;;;;;;4933675;29;20222;-75
2022/06/06 12:00:24;;;;;;;2.15;2.05;;;;;;;;;;4911960;28;20322;-75
2022/06/06 12:03:10;;;;;;;2.50;2.20;;;;;;;;;;4921703;29;20281;-74
2022/06/06 12:05:52;;;;;;;2.88;2.00;;;;;;;;;;4941275;28;20222;-75
2022/06/06 12:09:02;;;;;;;2.55;2.10;;;;;;;;;;4929424;28;20266;-75
2022/06/06 12:12:01;;;;;;;3.60;1.80;;;;;;;;;;4903615;29;20659;-74
2022/06/06 12:14:45;;;;;;;1.98;1.77;;;;;;;;;;4920650;28;20705;-74
2022/06/06 12:17:10;;;;;;;1.77;1.67;;;;;;;;;;4946531;28;20297;-74
2022/06/06 12:20:11;;;;;;;1.52;1.42;;;;;;;;;;4931332;28;20773;-74
2022/06/06 12:23:12;;;;;;;1.90;1.80;;;;;;;;;;4923902;29;20315;-75
2022/06/06 12:26:20;;;;;;;2.00;1.90;;;;;;;;;;4897878;29;20290;-74
2022/06/06 12:28:55;;;;;;;1.77;1.67;;;;;;;;;;4924214;29;20231;-74
2022/06/06 12:31:57;;;;;;;1.70;1.60;;;;;;;;;;4932292;28;20282;-74
2022/06/06 12:34:46;;;;;;;3.70;1.50;;;;;;;;;;4910654;29;20635;-74
2022/06/06 12:37:17;;;;;;;1.45;1.30;;;;;;;;;;4941144;28;20734;-74
2022/06/06 12:39:47;;;;;;;1.35;1.20;;;;;;;;;;4911925;29;20600;-74
2022/06/06 12:42:30;;;;;;;1.63;1.48;;;;;;;;;;4929284;28;20222;-75
2022/06/06 12:45:30;;;;;;;2.17;1.63;;;;;;;;;;4931480;29;20286;-72
2022/06/06 12:48:18;;;;;;;1.70;1.15;;;;;;;;;;4923540;28;20269;-74
2022/06/06 12:51:03;;;;;;;1.95;1.30;;;;;;;;;;4916426;29;20267;-75
2022/06/06 12:53:44;;;;;;;1.42;1.20;;;;;;;;;;4944304;28;20230;-74
2022/06/06 12:56:25;;;;;;;1.58;1.17;;;;;;;;;;4916222;28;20230;-74
2022/06/06 12:59:04;;;;;;;1.70;1.30;;;;;;;;;;4932257;28;20254;-73
2022/06/06 13:02:22;;;;;;;1.45;0.90;;;;;;;;;;4915160;29;20315;-74
2022/06/06 13:04:52;;;;;;;1.10;1.00;;;;;;;;;;4904241;29;20271;-74
2022/06/06 13:07:38;;;;;;;1.48;1.38;;;;;;;;;;4936847;28;20910;-73
2022/06/06 13:10:23;;;;;;;3.17;1.60;;;;;;;;;;4933728;28;20733;-74
2022/06/06 13:13:23;;;;;;;2.95;1.95;;;;;;;;;;4916337;29;20253;-76
2022/06/06 13:16:08;;;;;;;1.65;1.40;;;;;;;;;;4930401;29;20315;-74
2022/06/06 13:19:04;;;;;;;1.08;1.08;;;;;;;;;;4944055;28;20346;-74
2022/06/06 13:22:00;;;;;;;1.20;1.10;;;;;;;;;;4882946;29;20220;-74
2022/06/06 13:24:48;;;;;;;1.30;1.20;;;;;;;;;;4919194;28;20226;-73
2022/06/06 13:27:22;;;;;;;1.70;1.20;;;;;;;;;;4930048;28;20321;-74
2022/06/06 13:29:48;;;;;;;1.30;1.20;;;;;;;;;;4908383;29;20231;-74
2022/06/06 13:32:45;;;;;;;1.42;1.30;;;;;;;;;;4922485;28;20690;-78
2022/06/06 13:35:40;;;;;;;1.35;1.25;;;;;;;;;;4928846;28;20226;-75
2022/06/06 13:38:35;;;;;;;1.05;1.00;;;;;;;;;;4938103;28;20223;-75
2022/06/06 13:41:16;;;;;;;1.27;1.17;;;;;;;;;;4941383;29;20230;-74
2022/06/06 13:44:26;;;;;;;2.55;1.00;;;;;;;;;;4928280;28;20665;-73
2022/06/06 13:47:07;;;;;;;1.98;1.05;;;;;;;;;;4913556;29;20238;-81
2022/06/06 13:49:41;;;;;;;1.30;1.20;;;;;;;;;;4905700;29;20227;-76
2022/06/06 13:52:17;;;;;;;1.30;1.20;;;;;;;;;;4928556;28;20742;-74
2022/06/06 13:54:43;;;;;;;1.35;1.15;;;;;;;;;;4904717;29;20251;-73
2022/06/06 13:57:13;;;;;;;1.30;1.20;;;;;;;;;;4898425;28;20275;-75
2022/06/06 13:59:59;;;;;;;1.48;1.38;;;;;;;;;;4928825;28;20728;-75
2022/06/06 14:02:27;;;;;;;1.20;1.10;;;;;;;;;;4917320;28;20637;-74
2022/06/06 14:05:13;;;;;;;1.40;1.20;;;;;;;;;;4918239;29;20238;-74
2022/06/06 14:07:57;;;;;;;1.60;1.30;;;;;;;;;;4918943;29;20231;-75
2022/06/06 14:10:29;;;;;;;1.38;1.20;;;;;;;;;;4937518;28;20227;-73
2022/06/06 14:13:08;;;;;;;1.67;1.23;;;;;;;;;;4906099;29;20263;-76
2022/06/06 14:15:43;;;;;;;1.23;1.05;;;;;;;;;;4927206;28;20597;-74
2022/06/06 14:18:13;;;;;;;3.00;1.60;;;;;;;;;;4914030;28;20631;-73
2022/06/06 14:20:48;;;;;;;2.90;1.10;;;;;;;;;;4915606;29;20769;-72
2022/06/06 14:23:31;;;;;;;1.48;1.20;;;;;;;;;;4910543;28;20231;-74
2022/06/06 14:26:27;;;;;;;2.75;1.10;;;;;;;;;;4931550;29;20672;-75
2022/06/06 14:29:14;;;;;;;1.38;1.00;;;;;;;;;;4920072;28;20596;-75
2022/06/06 14:31:48;;;;;;;1.00;0.90;;;;;;;;;;4912306;29;20223;-78
2022/06/06 14:34:36;;;;;;;1.33;0.98;;;;;;;;;;4930834;28;20239;-74
2022/06/06 14:37:11;;;;;;;1.52;1.05;;;;;;;;;;4917660;29;20679;-73
2022/06/06 14:39:37;;;;;;;0.90;0.90;;;;;;;;;;4912044;29;20223;-76
2022/06/06 14:42:06;;;;;;;0.90;0.90;;;;;;;;;;4896013;28;20745;-73
2022/06/06 14:44:50;;;;;;;0.95;0.90;;;;;;;;;;4898087;29;20597;-71
2022/06/06 14:47:20;;;;;;;1.83;0.80;;;;;;;;;;4924745;28;20282;-73
2022/06/06 14:50:45;;;;;;;1.17;0.90;;;;;;;;;;4914187;29;20227;-73
2022/06/06 14:52:36;;;;;;;1.10;1.00;;;;;;;;;;4912030;29;20724;-73
2022/06/06 14:55:05;;;;;;;1.38;1.00;;;;;;;;;;4923515;28;20239;-72
2022/06/06 14:57:31;;;;;;;2.03;0.93;;;;;;;;;;4913680;29;20910;-70
2022/06/06 14:59:58;;;;;;;0.70;0.70;;;;;;;;;;4882776;29;20282;-75
2022/06/06 15:02:26;;;;;;;1.20;1.10;;;;;;;;;;4894076;28;20614;-71
2022/06/06 15:05:23;;;;;;;1.13;1.02;;;;;;;;;;4921458;29;20230;-74
2022/06/06 15:07:58;;;;;;;0.93;0.93;;;;;;;;;;4923908;28;20255;-71
2022/06/06 15:10:28;;;;;;;1.08;1.02;;;;;;;;;;4910439;28;20226;-72
2022/06/06 15:12:55;;;;;;;2.03;0.80;;;;;;;;;;4912947;29;20232;-71
2022/06/06 15:15:21;;;;;;;0.80;0.80;;;;;;;;;;4928965;28;20250;-70
2022/06/06 15:17:52;;;;;;;2.92;0.90;;;;;;;;;;4898816;29;20215;-77
2022/06/06 15:20:33;;;;;;;0.90;0.90;;;;;;;;;;4897494;28;20243;-74
2022/06/06 15:23:05;;;;;;;0.68;0.68;;;;;;;;;;4898709;29;20228;-73
2022/06/06 15:25:44;;;;;;;1.73;0.80;;;;;;;;;;4945575;28;20227;-75
2022/06/06 15:28:37;;;;;;;0.77;0.73;;;;;;;;;;4913259;28;20737;-71
2022/06/06 15:31:28;;;;;;;1.13;0.73;;;;;;;;;;4897239;28;20228;-70
2022/06/06 15:34:19;;;;;;;0.60;0.60;;;;;;;;;;4900263;29;20983;-72
2022/06/06 15:37:15;;;;;;;0.80;0.70;;;;;;;;;;4936283;28;20928;-71
2022/06/06 15:39:55;;;;;;;3.50;1.05;;;;;;;;;;4914624;29;20231;-71
2022/06/06 15:42:39;;;;;;;0.65;0.65;;;;;;;;;;4941882;28;20278;-71
2022/06/06 15:45:23;;;;;;;0.82;0.70;;;;;;;;;;4913817;28;21043;-73
2022/06/06 15:47:59;;;;;;;0.70;0.70;;;;;;;;;;4927891;28;20660;-73
2022/06/06 15:50:37;;;;;;;0.70;0.60;;;;;;;;;;4916256;28;20589;-71
2022/06/06 15:53:12;;;;;;;1.35;0.70;;;;;;;;;;4896928;28;20227;-73
2022/06/06 15:56:20;;;;;;;2.38;0.80;;;;;;;;;;4928018;29;20581;-72
2022/06/06 15:59:08;;;;;;;0.75;0.75;;;;;;;;;;4914982;29;20301;-72
2022/06/06 16:02:11;;;;;;;2.50;0.70;;;;;;;;;;4942102;28;20225;-73
2022/06/06 16:05:23;;;;;;;2.30;0.80;;;;;;;;;;4929639;28;20265;-70
2022/06/06 16:08:39;;;;;;;1.67;0.80;;;;;;;;;;4911427;28;20241;-71
2022/06/06 16:11:47;;;;;;;1.23;0.70;;;;;;;;;;4931121;28;20631;-73